Time;durP1;ratioP1;P1;durP2;ratioP2;P2;SDS_P1;SDS_P2;PMS_P1;PMS_P2;Temp;Humidity;BMP_temperature;BMP_pressure;BME280_temperature;BME280_humidity;BME280_pressure;Samples;Min_cycle;Max_cycle;Signal;HPM_P1;HPM_P2
2021/05/14 00:00:03;;;;;;;9.83;5.13;;;;;;;12.85;76.07;98785.20;129977;1099;23236;-62
2021/05/14 00:02:35;;;;;;;6.75;5.40;;;;;;;12.84;75.91;98787.13;129960;1100;22542;-62
2021/05/14 00:05:04;;;;;;;14.33;5.95;;;;;;;12.81;76.03;98782.26;129988;1100;22557;-62
2021/05/14 00:07:33;;;;;;;6.20;4.83;;;;;;;12.79;75.88;98789.94;129978;1100;23583;-62
2021/05/14 00:10:01;;;;;;;7.45;5.13;;;;;;;12.77;76.09;98786.67;129951;1101;22584;-62
2021/05/14 00:12:30;;;;;;;6.83;6.08;;;;;;;12.77;76.13;98788.59;129974;1100;22652;-62
2021/05/14 00:14:58;;;;;;;7.13;5.43;;;;;;;12.74;76.24;98785.33;129997;1101;22600;-62
2021/05/14 00:17:27;;;;;;;8.43;6.00;;;;;;;12.74;76.12;98790.80;129979;1101;22727;-62
2021/05/14 00:19:56;;;;;;;8.20;6.05;;;;;;;12.74;76.09;98781.78;130006;1100;22574;-62
2021/05/14 00:22:25;;;;;;;6.35;4.68;;;;;;;12.73;76.20;98777.41;129939;1100;22532;-63
2021/05/14 00:24:53;;;;;;;10.35;5.13;;;;;;;12.74;76.43;98781.78;130015;1100;22586;-62
2021/05/14 00:27:23;;;;;;;5.30;4.75;;;;;;;12.75;76.26;98777.94;129928;1100;23496;-62
2021/05/14 00:29:51;;;;;;;7.25;5.40;;;;;;;12.77;76.45;98777.66;129994;1101;22580;-62
2021/05/14 00:32:20;;;;;;;4.75;4.25;;;;;;;12.77;76.21;98774.92;130004;1100;22582;-62
2021/05/14 00:34:48;;;;;;;8.35;4.75;;;;;;;12.76;76.57;98779.58;129968;1101;22535;-62
2021/05/14 00:37:17;;;;;;;7.28;5.35;;;;;;;12.75;76.33;98767.82;130026;1100;22696;-63
2021/05/14 00:39:45;;;;;;;8.78;5.68;;;;;;;12.74;76.27;98774.39;129953;1101;23446;-63
2021/05/14 00:42:15;;;;;;;6.83;6.03;;;;;;;12.74;76.45;98770.84;130014;1100;22552;-61
2021/05/14 00:44:45;;;;;;;11.35;5.98;;;;;;;12.72;76.37;98765.66;129965;1101;23325;-61
2021/05/14 00:47:17;;;;;;;6.93;6.13;;;;;;;12.73;76.60;98769.21;129988;1101;22747;-62
2021/05/14 00:49:46;;;;;;;7.40;5.45;;;;;;;12.74;76.26;98765.38;129959;1101;22583;-62
2021/05/14 00:52:16;;;;;;;6.68;5.30;;;;;;;12.72;76.67;98759.38;130007;1101;22668;-62
2021/05/14 00:54:46;;;;;;;5.90;4.60;;;;;;;12.71;76.52;98758.56;129934;1100;22537;-61
2021/05/14 00:57:16;;;;;;;6.95;4.35;;;;;;;12.68;76.48;98755.63;129967;1100;22658;-62
2021/05/14 00:59:45;;;;;;;9.80;4.95;;;;;;;12.66;76.22;98757.83;130006;1098;22637;-62
2021/05/14 01:02:13;;;;;;;6.30;5.25;;;;;;;12.64;76.20;98766.31;130011;1101;22594;-62
2021/05/14 01:04:43;;;;;;;6.95;5.53;;;;;;;12.64;76.34;98763.58;129983;1100;22717;-61
2021/05/14 01:07:12;;;;;;;10.68;6.13;;;;;;;12.64;76.61;98760.03;130004;1101;22594;-62
2021/05/14 01:09:41;;;;;;;9.25;6.20;;;;;;;12.63;76.34;98761.95;129953;1100;22562;-62
2021/05/14 01:12:11;;;;;;;6.75;5.75;;;;;;;12.62;76.47;98765.78;130050;1100;22678;-61
2021/05/14 01:14:42;;;;;;;11.28;5.60;;;;;;;12.63;76.02;98755.67;129947;1101;22540;-63
2021/05/14 01:17:11;;;;;;;7.63;4.88;;;;;;;12.64;76.25;98757.30;130061;1101;22543;-62
2021/05/14 01:19:39;;;;;;;6.25;4.95;;;;;;;12.64;75.84;98755.38;129982;1100;23372;-62
2021/05/14 01:22:08;;;;;;;6.55;4.48;;;;;;;12.65;75.80;98754.28;130023;1100;23513;-62
2021/05/14 01:24:36;;;;;;;7.65;5.05;;;;;;;12.67;75.90;98759.46;130002;1100;23196;-62
2021/05/14 01:27:06;;;;;;;9.03;4.75;;;;;;;12.69;75.93;98759.98;130032;1101;22561;-63
2021/05/14 01:29:34;;;;;;;10.25;5.20;;;;;;;12.69;75.64;98755.34;130045;1100;22551;-63
2021/05/14 01:32:03;;;;;;;7.40;5.68;;;;;;;12.69;75.69;98755.34;130002;1098;22558;-63
2021/05/14 01:34:31;;;;;;;8.15;5.08;;;;;;;12.69;75.40;98751.79;130049;1100;22692;-63
2021/05/14 01:37:00;;;;;;;8.75;5.30;;;;;;;12.69;75.34;98749.05;129975;1101;22895;-63
2021/05/14 01:39:28;;;;;;;6.18;5.58;;;;;;;12.68;75.14;98747.42;130047;1101;22675;-62
2021/05/14 01:41:59;;;;;;;6.78;5.10;;;;;;;12.67;75.19;98756.73;129999;1100;22565;-62
2021/05/14 01:44:30;;;;;;;6.50;4.73;;;;;;;12.66;75.48;98747.71;130033;1100;22615;-63
2021/05/14 01:46:58;;;;;;;10.40;5.15;;;;;;;12.65;75.54;98748.00;129997;1101;22588;-63
2021/05/14 01:49:27;;;;;;;9.30;5.43;;;;;;;12.64;75.30;98743.64;130058;1100;23284;-62
2021/05/14 01:51:56;;;;;;;5.85;4.38;;;;;;;12.64;75.56;98735.44;129979;1101;23278;-62
2021/05/14 01:54:25;;;;;;;9.05;5.45;;;;;;;12.64;75.60;98744.45;130075;1101;23152;-61
2021/05/14 01:56:53;;;;;;;5.80;5.20;;;;;;;12.63;75.31;98742.81;129986;1101;22564;-61
2021/05/14 01:59:22;;;;;;;8.15;5.28;;;;;;;12.62;75.56;98735.72;130080;1100;22589;-60
2021/05/14 02:01:50;;;;;;;8.43;5.53;;;;;;;12.63;75.42;98733.80;129968;1100;22702;-61
2021/05/14 02:04:19;;;;;;;8.25;5.50;;;;;;;12.60;75.39;98739.84;130037;1099;23309;-61
2021/05/14 02:06:48;;;;;;;8.33;5.83;;;;;;;12.59;75.50;98740.95;129919;1100;22621;-61
2021/05/14 02:09:17;;;;;;;6.83;5.30;;;;;;;12.57;75.34;98741.23;130016;1100;22607;-62
2021/05/14 02:11:46;;;;;;;5.43;4.83;;;;;;;12.56;75.33;98733.33;129997;1100;22542;-61
2021/05/14 02:14:14;;;;;;;8.83;5.38;;;;;;;12.55;75.23;98737.19;130050;1101;22549;-61
2021/05/14 02:16:43;;;;;;;7.65;5.03;;;;;;;12.54;75.53;98735.56;129978;1101;22600;-61
2021/05/14 02:19:13;;;;;;;10.60;5.78;;;;;;;12.53;75.29;98731.20;130051;1101;23213;-61
2021/05/14 02:21:42;;;;;;;9.05;5.30;;;;;;;12.53;75.58;98726.55;130022;1100;22653;-62
2021/05/14 02:24:10;;;;;;;8.68;6.40;;;;;;;12.52;75.65;98726.83;130071;1100;22541;-61
2021/05/14 02:26:39;;;;;;;8.40;5.75;;;;;;;12.50;75.48;98726.30;130072;1099;22578;-61
2021/05/14 02:29:07;;;;;;;12.88;6.55;;;;;;;12.48;75.40;98725.77;129935;1100;22568;-62
2021/05/14 02:31:36;;;;;;;8.33;6.08;;;;;;;12.44;75.49;98730.18;130013;1101;22551;-61
2021/05/14 02:34:04;;;;;;;8.28;5.75;;;;;;;12.43;75.32;98729.36;130030;1100;22693;-61
2021/05/14 02:36:33;;;;;;;9.88;5.38;;;;;;;12.39;75.18;98718.23;130033;1101;22735;-62
2021/05/14 02:39:01;;;;;;;7.35;5.13;;;;;;;12.39;75.61;98720.95;129977;1100;22543;-61
2021/05/14 02:41:34;;;;;;;7.75;4.95;;;;;;;12.39;75.52;98715.49;130027;1100;22638;-64
2021/05/14 02:44:03;;;;;;;6.43;4.98;;;;;;;12.38;75.12;98719.33;129998;1101;22623;-64
2021/05/14 02:46:35;;;;;;;6.05;5.10;;;;;;;12.39;75.28;98720.95;130062;1101;22520;-64
2021/05/14 02:49:04;;;;;;;11.13;6.63;;;;;;;12.37;75.25;98717.70;130026;1101;22563;-65
2021/05/14 02:51:33;;;;;;;12.85;6.18;;;;;;;12.34;75.28;98712.80;130042;1101;22667;-67
2021/05/14 02:54:03;;;;;;;7.75;6.48;;;;;;;12.34;75.28;98715.53;129965;1101;22557;-65
2021/05/14 02:56:32;;;;;;;11.23;7.10;;;;;;;12.32;74.87;98712.27;130017;1101;22624;-65
2021/05/14 02:59:00;;;;;;;10.70;6.90;;;;;;;12.30;75.15;98716.39;129972;1101;22568;-65
2021/05/14 03:01:29;;;;;;;8.40;6.25;;;;;;;12.29;74.91;98710.11;130025;1101;22621;-65
2021/05/14 03:03:57;;;;;;;9.58;6.00;;;;;;;12.28;75.04;98710.40;130003;1101;22619;-65
2021/05/14 03:06:26;;;;;;;9.43;6.13;;;;;;;12.28;75.32;98710.40;130000;1101;22553;-64
2021/05/14 03:08:55;;;;;;;11.60;5.78;;;;;;;12.29;75.34;98703.84;129973;1101;23505;-66
2021/05/14 03:11:24;;;;;;;11.68;5.85;;;;;;;12.30;75.16;98711.75;130054;1101;22578;-66
2021/05/14 03:13:53;;;;;;;9.45;6.60;;;;;;;12.32;75.33;98712.27;129987;1100;22640;-66
2021/05/14 03:16:22;;;;;;;15.08;6.98;;;;;;;12.34;75.16;98710.08;130042;1101;22665;-69
2021/05/14 03:18:51;;;;;;;8.50;7.45;;;;;;;12.37;75.17;98708.69;130004;1101;23345;-69
2021/05/14 03:21:19;;;;;;;10.03;7.78;;;;;;;12.40;74.84;98708.11;130002;1101;22698;-69
2021/05/14 03:23:47;;;;;;;12.00;7.90;;;;;;;12.43;74.99;98709.42;130000;1101;23003;-66
2021/05/14 03:26:16;;;;;;;9.43;7.90;;;;;;;12.43;75.00;98712.97;129959;1101;22748;-63
2021/05/14 03:28:44;;;;;;;9.15;7.50;;;;;;;12.45;74.82;98710.77;130017;1101;22719;-63
2021/05/14 03:31:12;;;;;;;9.95;7.28;;;;;;;12.47;75.14;98713.22;130034;1101;22617;-64
2021/05/14 03:33:41;;;;;;;13.55;7.78;;;;;;;12.48;74.65;98721.13;130053;1101;22604;-66
2021/05/14 03:36:10;;;;;;;11.33;7.35;;;;;;;12.52;74.90;98724.09;129991;1101;22698;-65
2021/05/14 03:38:38;;;;;;;10.43;8.03;;;;;;;12.54;74.31;98722.71;130051;1101;22580;-65
2021/05/14 03:41:19;;;;;;;11.33;7.75;;;;;;;12.55;74.56;98724.31;130008;1101;22530;-63
2021/05/14 03:43:47;;;;;;;12.68;8.88;;;;;;;12.58;74.43;98717.45;130035;1100;22559;-61
2021/05/14 03:46:15;;;;;;;11.58;8.78;;;;;;;12.60;74.02;98724.27;130000;1100;22594;-61
2021/05/14 03:48:44;;;;;;;11.65;8.50;;;;;;;12.62;73.78;98723.98;129989;1100;22583;-61
2021/05/14 03:51:12;;;;;;;11.05;8.88;;;;;;;12.63;73.79;98718.22;129995;1101;22568;-61
2021/05/14 03:53:41;;;;;;;10.68;8.53;;;;;;;12.63;73.52;98725.61;130031;1101;22613;-62
2021/05/14 03:56:09;;;;;;;15.20;9.03;;;;;;;12.63;73.46;98728.34;130002;1100;23429;-63
2021/05/14 03:58:38;;;;;;;10.45;8.40;;;;;;;12.64;73.76;98722.59;130042;1101;22525;-63
2021/05/14 04:01:06;;;;;;;11.30;8.83;;;;;;;12.64;73.46;98722.59;129979;1100;22601;-61
2021/05/14 04:03:34;;;;;;;9.38;7.25;;;;;;;12.66;73.58;98720.38;130053;1100;22679;-61
2021/05/14 04:06:03;;;;;;;12.98;7.85;;;;;;;12.68;73.43;98720.09;130005;1098;22551;-61
2021/05/14 04:08:32;;;;;;;10.83;7.45;;;;;;;12.70;73.71;98726.05;130047;1101;22713;-61
2021/05/14 04:14:30;;;;;;;10.55;8.80;;;;;;;12.75;73.66;98724.09;130028;1100;22551;-61
2021/05/14 04:16:33;;;;;;;13.33;8.75;;;;;;;12.78;73.66;98719.96;130097;1091;26792;-64
2021/05/14 04:19:02;;;;;;;18.23;9.03;;;;;;;12.81;73.40;98716.66;130033;1101;22524;-65
2021/05/14 04:21:31;;;;;;;9.98;8.95;;;;;;;12.83;73.33;98719.91;130011;1098;23383;-63
2021/05/14 04:23:59;;;;;;;12.73;8.70;;;;;;;12.86;73.60;98710.28;130019;1101;22537;-61
2021/05/14 04:26:27;;;;;;;12.28;8.60;;;;;;;12.89;73.44;98712.44;130008;1100;22648;-61
2021/05/14 04:28:56;;;;;;;15.08;8.23;;;;;;;12.91;73.62;98708.31;130002;1100;22577;-62
2021/05/14 04:31:24;;;;;;;15.88;8.25;;;;;;;12.93;73.52;98708.84;130048;1100;23082;-62
2021/05/14 04:33:53;;;;;;;12.13;7.53;;;;;;;12.96;73.35;98697.32;129999;1101;23393;-61
2021/05/14 04:36:21;;;;;;;14.08;9.33;;;;;;;13.00;73.02;98711.20;130062;1099;22634;-62
2021/05/14 04:38:50;;;;;;;10.18;8.58;;;;;;;13.02;73.17;98711.72;130021;1099;23287;-62
2021/05/14 04:41:18;;;;;;;19.63;9.10;;;;;;;13.05;72.97;98711.95;130030;1100;22692;-61
2021/05/14 04:43:46;;;;;;;11.25;8.95;;;;;;;13.09;72.94;98707.53;130029;1100;22535;-61
2021/05/14 04:46:15;;;;;;;11.10;9.05;;;;;;;13.13;72.83;98699.53;130000;1101;22665;-61
2021/05/14 04:48:56;;;;;;;11.78;8.68;;;;;;;13.19;72.75;98705.79;129937;1100;23392;-61
2021/05/14 04:51:26;;;;;;;14.68;8.55;;;;;;;13.27;73.00;98696.94;130017;1101;22579;-62
2021/05/14 04:53:55;;;;;;;11.18;8.95;;;;;;;13.38;72.73;98695.67;130002;1100;22515;-62
2021/05/14 04:56:24;;;;;;;15.25;8.85;;;;;;;13.50;72.48;98698.77;130012;1101;22556;-62
2021/05/14 04:58:52;;;;;;;12.05;9.03;;;;;;;13.73;71.81;98695.09;129946;1101;22541;-63
2021/05/14 05:01:21;;;;;;;10.58;9.13;;;;;;;14.00;71.91;98699.03;130020;1101;22549;-62
2021/05/14 05:03:51;;;;;;;9.50;8.50;;;;;;;14.29;71.12;98685.90;130021;1101;22653;-62
2021/05/14 05:06:19;;;;;;;9.78;7.68;;;;;;;14.57;70.84;98686.77;130042;1101;23096;-61
2021/05/14 05:08:48;;;;;;;9.88;7.48;;;;;;;14.83;69.35;98685.16;130008;1100;22544;-62
2021/05/14 05:11:17;;;;;;;9.53;7.73;;;;;;;15.04;68.29;98691.00;130003;1100;23086;-61
2021/05/14 05:13:46;;;;;;;10.45;7.98;;;;;;;15.18;68.20;98675.32;130013;1098;22658;-62
2021/05/14 05:16:14;;;;;;;11.20;7.00;;;;;;;15.33;67.52;98682.39;130038;1100;22704;-61
2021/05/14 05:18:43;;;;;;;9.83;7.63;;;;;;;15.47;66.90;98676.86;130003;1101;22701;-62
2021/05/14 05:21:11;;;;;;;13.05;7.65;;;;;;;15.59;67.01;98677.15;129001;1093;26200;-62
2021/05/14 05:23:40;;;;;;;12.03;7.85;;;;;;;15.71;66.29;98673.86;125504;1100;22743;-60
2021/05/14 05:26:08;;;;;;;12.03;7.30;;;;;;;15.82;65.53;98664.24;125444;1093;26273;-62
2021/05/14 05:28:37;;;;;;;9.33;7.58;;;;;;;15.90;65.42;98661.53;125476;1101;22779;-61
2021/05/14 05:31:06;;;;;;;15.63;7.43;;;;;;;15.96;65.18;98664.16;129991;1100;22605;-61
2021/05/14 05:33:34;;;;;;;13.55;7.50;;;;;;;15.99;64.21;98669.04;130091;1098;22531;-61
2021/05/14 05:36:03;;;;;;;13.25;7.90;;;;;;;15.96;64.91;98669.66;130029;1100;22618;-62
2021/05/14 05:38:33;;;;;;;14.95;8.53;;;;;;;15.91;64.01;98667.84;130021;1099;22578;-61
2021/05/14 05:41:01;;;;;;;18.95;7.70;;;;;;;15.83;64.21;98666.68;129978;1100;23125;-62
2021/05/14 05:43:29;;;;;;;15.30;7.30;;;;;;;15.74;63.83;98671.28;130019;1100;23045;-62
2021/05/14 05:45:58;;;;;;;12.78;7.73;;;;;;;15.64;63.81;98662.49;130018;1098;23685;-61
2021/05/14 05:48:26;;;;;;;12.40;7.80;;;;;;;15.52;63.65;98663.84;130036;1098;22549;-61
2021/05/14 05:50:55;;;;;;;12.30;7.67;;;;;;;15.44;64.39;98666.50;129958;1101;22549;-61
2021/05/14 05:53:23;;;;;;;13.63;7.27;;;;;;;15.37;64.16;98666.94;130117;1098;23166;-61
2021/05/14 05:55:52;;;;;;;11.05;6.78;;;;;;;15.33;64.75;98665.12;130027;1100;22521;-60
2021/05/14 05:58:20;;;;;;;10.60;6.45;;;;;;;15.30;64.60;98660.24;130022;1101;23298;-61
2021/05/14 06:00:49;;;;;;;8.60;6.70;;;;;;;15.28;65.17;98657.02;129980;1101;22548;-62
2021/05/14 06:03:18;;;;;;;8.93;6.65;;;;;;;15.31;65.54;98659.13;130034;1100;23246;-60
2021/05/14 06:05:46;;;;;;;10.88;7.38;;;;;;;15.37;64.96;98652.41;130002;1100;22742;-61
2021/05/14 06:08:14;;;;;;;19.83;7.38;;;;;;;15.43;64.97;98653.92;130016;1100;23474;-60
2021/05/14 06:10:45;;;;;;;10.30;7.40;;;;;;;15.52;65.07;98646.55;130011;1100;23418;-61
2021/05/14 06:13:13;;;;;;;11.35;7.65;;;;;;;15.62;64.92;98649.07;130003;1100;22643;-61
2021/05/14 06:15:42;;;;;;;12.80;7.40;;;;;;;15.68;64.57;98636.84;130058;1101;22545;-62
2021/05/14 06:18:14;;;;;;;16.65;8.53;;;;;;;15.75;64.71;98631.71;130002;1100;22625;-62
2021/05/14 06:20:46;;;;;;;15.70;8.53;;;;;;;15.86;64.45;98635.03;130011;1101;22673;-62
2021/05/14 06:23:14;;;;;;;13.08;8.43;;;;;;;15.96;63.63;98643.00;129958;1100;22548;-61
2021/05/14 06:25:42;;;;;;;10.30;7.70;;;;;;;16.07;63.82;98647.09;130043;1100;22543;-62
2021/05/14 06:28:23;;;;;;;11.30;7.70;;;;;;;16.16;63.62;98636.95;129987;1101;22587;-62
2021/05/14 06:30:52;;;;;;;17.45;7.83;;;;;;;16.25;63.26;98640.56;130034;1100;22666;-62
2021/05/14 06:33:20;;;;;;;14.13;8.40;;;;;;;16.31;63.14;98641.22;130053;1100;23239;-62
2021/05/14 06:35:50;;;;;;;15.80;8.05;;;;;;;16.34;63.05;98637.03;130091;1098;22538;-61
2021/05/14 06:38:18;;;;;;;11.40;7.13;;;;;;;16.38;63.20;98644.33;129958;1101;22691;-61
2021/05/14 06:40:46;;;;;;;13.40;6.08;;;;;;;16.43;62.89;98640.64;129996;1100;22553;-62
2021/05/14 06:43:20;;;;;;;13.70;7.10;;;;;;;16.47;62.86;98639.66;129996;1100;22542;-68
2021/05/14 06:45:49;;;;;;;16.03;7.10;;;;;;;16.56;63.39;98637.77;130022;1100;22543;-64
2021/05/14 06:48:17;;;;;;;13.23;7.38;;;;;;;16.68;63.75;98637.19;129988;1101;24423;-63
2021/05/14 06:50:47;;;;;;;10.48;5.88;;;;;;;16.82;61.63;98632.37;130013;1100;22647;-62
2021/05/14 06:53:17;;;;;;;12.15;6.00;;;;;;;16.92;60.85;98633.99;129935;1098;22569;-63
2021/05/14 06:55:46;;;;;;;12.33;6.33;;;;;;;16.95;60.43;98627.85;130067;1100;22663;-63
2021/05/14 06:58:17;;;;;;;10.48;5.38;;;;;;;16.97;60.33;98631.09;129978;1100;23390;-63
2021/05/14 07:00:45;;;;;;;13.60;6.55;;;;;;;16.98;60.33;98626.41;129970;1101;22683;-63
2021/05/14 07:03:14;;;;;;;18.03;5.93;;;;;;;17.04;60.56;98622.34;130026;1100;22562;-62
2021/05/14 07:05:43;;;;;;;13.20;5.55;;;;;;;17.11;60.15;98617.19;130009;1101;23663;-61
2021/05/14 07:08:12;;;;;;;8.58;4.58;;;;;;;17.22;59.58;98618.48;130008;1100;22591;-65
2021/05/14 07:10:40;;;;;;;14.80;5.60;;;;;;;17.29;59.74;98611.38;130049;1101;22649;-62
2021/05/14 07:13:08;;;;;;;13.20;6.00;;;;;;;17.39;59.72;98603.91;129989;1100;22604;-61
2021/05/14 07:15:37;;;;;;;10.50;4.63;;;;;;;17.48;58.75;98608.27;129990;1101;22589;-62
2021/05/14 07:18:05;;;;;;;12.53;5.58;;;;;;;17.59;58.98;98606.00;129994;1101;22544;-61
2021/05/14 07:20:36;;;;;;;13.55;5.33;;;;;;;17.69;59.07;98604.88;129998;1101;23116;-63
2021/05/14 07:23:05;;;;;;;9.00;5.10;;;;;;;17.74;58.63;98610.23;130011;1101;22583;-62
2021/05/14 07:25:33;;;;;;;13.18;5.63;;;;;;;17.75;57.49;98604.36;129993;1101;22691;-62
2021/05/14 07:28:02;;;;;;;11.48;4.80;;;;;;;17.75;57.50;98607.11;130025;1101;22598;-63
2021/05/14 07:30:31;;;;;;;12.58;4.43;;;;;;;17.78;57.46;98605.66;129980;1101;22508;-62
2021/05/14 07:33:00;;;;;;;9.10;4.58;;;;;;;17.82;56.74;98604.69;130024;1100;22581;-62
2021/05/14 07:35:28;;;;;;;9.73;4.33;;;;;;;17.85;57.03;98604.03;129960;1101;22757;-62
2021/05/14 07:38:10;;;;;;;8.35;3.68;;;;;;;17.87;56.17;98606.47;129959;1100;23276;-62
2021/05/14 07:40:39;;;;;;;11.48;3.93;;;;;;;17.85;55.87;98604.03;130007;1100;22642;-62
2021/05/14 07:43:08;;;;;;;6.53;3.48;;;;;;;17.86;55.93;98597.39;130034;1100;22642;-62
2021/05/14 07:45:36;;;;;;;10.35;3.80;;;;;;;17.87;55.71;98603.71;129965;1100;22605;-62
2021/05/14 07:48:05;;;;;;;9.30;3.40;;;;;;;17.87;55.21;98610.03;130026;1098;22540;-62
2021/05/14 07:50:34;;;;;;;12.53;3.65;;;;;;;17.92;55.08;98606.27;129929;1100;24770;-62
2021/05/14 07:53:04;;;;;;;7.43;3.33;;;;;;;17.93;55.26;98605.13;130023;1100;22568;-62
2021/05/14 07:55:33;;;;;;;7.65;3.33;;;;;;;17.90;54.26;98601.08;129966;1100;22591;-63
2021/05/14 07:58:01;;;;;;;10.03;3.75;;;;;;;17.94;53.96;98612.27;130027;1100;23455;-63
2021/05/14 08:00:31;;;;;;;5.75;2.90;;;;;;;17.88;53.37;98606.14;129955;1100;23927;-62
2021/05/14 08:02:59;;;;;;;8.40;3.13;;;;;;;17.91;53.86;98607.41;130081;1100;22655;-63
2021/05/14 08:05:27;;;;;;;8.23;3.13;;;;;;;17.91;54.26;98601.89;129997;1098;22538;-63
2021/05/14 08:08:09;;;;;;;6.00;3.03;;;;;;;17.89;54.13;98609.70;130027;1100;22611;-64
2021/05/14 08:10:42;;;;;;;5.45;2.95;;;;;;;17.86;55.25;98611.16;130005;1101;22664;-63
2021/05/14 08:13:23;;;;;;;11.70;3.78;;;;;;;17.82;56.60;98603.88;130035;1100;22576;-63
2021/05/14 08:15:52;;;;;;;10.30;3.93;;;;;;;17.73;56.32;98612.17;129946;1100;22884;-64
2021/05/14 08:18:21;;;;;;;6.33;3.58;;;;;;;17.66;57.28;98600.83;130022;1101;22570;-63
2021/05/14 08:20:50;;;;;;;8.08;3.68;;;;;;;17.59;58.04;98600.50;130001;1098;23491;-63
2021/05/14 08:23:20;;;;;;;13.05;3.63;;;;;;;17.53;58.08;98597.09;129983;1101;22528;-63
2021/05/14 08:25:49;;;;;;;7.40;3.65;;;;;;;17.43;58.08;98599.38;130003;1099;22578;-63
2021/05/14 08:28:18;;;;;;;10.78;4.43;;;;;;;17.33;58.42;98590.30;130041;1101;23477;-63
2021/05/14 08:30:47;;;;;;;6.10;3.88;;;;;;;17.26;59.05;98589.99;130030;1101;22522;-63
2021/05/14 08:33:15;;;;;;;6.13;3.68;;;;;;;17.21;60.32;98595.65;129959;1101;22672;-64
2021/05/14 08:35:44;;;;;;;8.40;3.50;;;;;;;17.18;60.14;98599.05;130047;1100;22732;-63
2021/05/14 08:38:13;;;;;;;9.15;4.68;;;;;;;17.17;59.65;98604.87;129985;1100;22595;-63
2021/05/14 08:40:41;;;;;;;10.70;3.55;;;;;;;17.14;57.92;98606.35;130072;1100;22633;-62
2021/05/14 08:43:11;;;;;;;6.53;3.55;;;;;;;17.14;57.41;98606.35;129965;1100;22690;-63
2021/05/14 08:45:41;;;;;;;6.93;3.43;;;;;;;17.15;57.16;98607.97;130010;1100;22521;-62
2021/05/14 08:48:13;;;;;;;8.88;3.80;;;;;;;17.17;57.31;98616.69;129973;1100;22553;-63
2021/05/14 08:50:42;;;;;;;9.38;3.60;;;;;;;17.23;56.78;98611.84;130022;1101;22714;-63
2021/05/14 08:53:35;;;;;;;8.03;3.25;;;;;;;17.27;56.46;98615.58;129939;1100;23272;-62
2021/05/14 08:56:04;;;;;;;9.33;3.88;;;;;;;17.31;56.58;98619.31;130002;1100;23081;-63
2021/05/14 09:01:12;;;;;;;8.60;3.47;;;;;;;17.39;56.53;98621.24;125613;1090;22981;-61
2021/05/14 09:03:57;;;;;;;7.88;3.73;;;;;;;17.43;56.56;98613.96;130339;1098;23109;-62
2021/05/14 09:06:41;;;;;;;6.73;3.38;;;;;;;17.48;56.68;98618.47;130406;1098;23032;-63
2021/05/14 09:09:10;;;;;;;7.28;3.60;;;;;;;17.54;56.93;98622.69;130305;1098;22566;-63
2021/05/14 09:11:51;;;;;;;8.93;4.00;;;;;;;17.60;56.34;98627.69;130079;1098;22705;-63
2021/05/14 09:14:44;;;;;;;7.08;3.45;;;;;;;17.67;56.44;98613.47;130161;1098;22525;-63
2021/05/14 09:17:16;;;;;;;5.70;3.15;;;;;;;17.73;55.55;98614.92;130077;1098;23605;-63
2021/05/14 09:19:46;;;;;;;5.78;3.00;;;;;;;17.80;56.12;98620.73;129946;1101;22511;-62
2021/05/14 09:22:22;;;;;;;8.18;3.78;;;;;;;17.87;56.15;98603.71;130367;1098;23662;-65
2021/05/14 09:25:06;;;;;;;8.10;4.40;;;;;;;17.94;55.62;98604.81;130580;1095;23396;-64
2021/05/14 09:27:35;;;;;;;8.78;3.55;;;;;;;17.99;55.03;98598.32;130576;1095;22567;-62
2021/05/14 09:30:08;;;;;;;8.58;3.88;;;;;;;18.03;54.99;98602.05;130390;1096;22539;-63
2021/05/14 09:32:38;;;;;;;8.83;4.15;;;;;;;18.08;55.53;98595.52;130620;1095;22499;-62
2021/05/14 09:35:07;;;;;;;8.63;4.08;;;;;;;18.13;55.01;98604.44;130394;1097;22617;-63
2021/05/14 09:37:46;;;;;;;6.65;3.60;;;;;;;18.16;54.41;98600.21;130541;1095;22582;-63
2021/05/14 09:40:18;;;;;;;7.98;3.35;;;;;;;18.19;54.38;98596.77;130543;1095;22647;-63
2021/05/14 09:42:49;;;;;;;11.40;3.58;;;;;;;18.20;53.48;98598.39;130527;1095;23383;-63
2021/05/14 09:45:21;;;;;;;8.83;3.75;;;;;;;18.20;52.68;98592.88;130488;1095;22525;-62
2021/05/14 09:48:02;;;;;;;10.95;3.98;;;;;;;18.19;52.75;98591.26;130519;1095;23227;-63
2021/05/14 09:50:34;;;;;;;9.53;4.35;;;;;;;18.17;52.41;98585.29;130466;1095;22529;-64
2021/05/14 09:53:10;;;;;;;8.45;3.33;;;;;;;18.15;51.34;98582.86;130562;1095;22622;-63
2021/05/14 09:55:40;;;;;;;7.45;3.25;;;;;;;18.14;52.21;98580.43;130346;1097;22565;-63
2021/05/14 09:58:17;;;;;;;9.70;3.75;;;;;;;18.14;51.66;98585.95;130400;1095;22938;-62
2021/05/14 10:00:46;;;;;;;6.03;3.20;;;;;;;18.14;52.34;98575.73;130497;1095;22545;-63
2021/05/14 10:03:19;;;;;;;6.63;3.33;;;;;;;18.16;52.00;98576.20;130496;1095;22585;-64
2021/05/14 10:05:48;;;;;;;6.48;3.50;;;;;;;18.20;52.77;98581.84;130453;1095;22736;-63
2021/05/14 10:08:20;;;;;;;5.53;3.63;;;;;;;18.21;51.88;98578.77;130561;1095;23640;-63
2021/05/14 10:10:49;;;;;;;9.95;3.43;;;;;;;18.24;53.09;98577.30;130318;1097;23379;-66
2021/05/14 10:13:18;;;;;;;12.28;3.10;;;;;;;18.25;52.85;98593.52;130393;1097;22563;-65
2021/05/14 10:15:46;;;;;;;12.38;3.43;;;;;;;18.28;52.56;98578.27;130358;1097;22551;-63
2021/05/14 10:18:18;;;;;;;7.43;3.70;;;;;;;18.30;52.69;98587.02;130486;1095;22570;-66
2021/05/14 10:20:47;;;;;;;9.15;3.15;;;;;;;18.27;52.16;98591.23;130330;1095;22602;-65
2021/05/14 10:23:16;;;;;;;8.40;3.30;;;;;;;18.22;51.65;98585.89;130376;1097;22528;-65
2021/05/14 10:25:48;;;;;;;8.53;3.23;;;;;;;18.17;51.97;98585.29;130338;1095;22496;-65
2021/05/14 10:28:26;;;;;;;9.33;3.03;;;;;;;18.06;52.67;98578.50;130522;1095;22554;-66
2021/05/14 10:30:58;;;;;;;6.38;3.43;;;;;;;17.93;53.19;98583.89;130451;1095;23423;-66
2021/05/14 10:33:48;;;;;;;6.75;2.93;;;;;;;17.80;53.40;98590.42;130398;1098;23377;-66
2021/05/14 10:36:17;;;;;;;9.00;3.53;;;;;;;17.62;54.11;98588.80;130360;1095;22722;-66
2021/05/14 10:39:15;;;;;;;9.93;4.18;;;;;;;17.44;53.99;98589.98;130534;1095;23504;-63
2021/05/14 10:41:50;;;;;;;7.30;3.58;;;;;;;17.18;53.89;98598.23;130518;1095;22761;-66
2021/05/14 10:44:41;;;;;;;4.70;3.68;;;;;;;17.05;54.56;98610.21;130576;1095;23144;-66
2021/05/14 10:47:22;;;;;;;4.78;3.38;;;;;;;16.89;55.41;98591.41;130529;1095;23467;-67
2021/05/14 10:50:09;;;;;;;4.85;3.55;;;;;;;16.78;55.99;98603.06;130577;1095;22677;-66
2021/05/14 10:53:16;;;;;;;11.60;3.55;;;;;;;16.71;56.95;98606.30;130480;1095;22563;-66
2021/05/14 10:55:50;;;;;;;7.58;4.50;;;;;;;16.69;58.58;98607.74;130502;1095;22546;-67
2021/05/14 10:58:40;;;;;;;5.93;4.10;;;;;;;16.75;59.55;98609.20;130483;1095;22509;-67
2021/05/14 11:01:26;;;;;;;4.40;3.53;;;;;;;16.84;59.88;98599.84;130544;1095;22655;-66
2021/05/14 11:03:55;;;;;;;6.60;5.00;;;;;;;16.95;60.38;98605.84;130549;1095;22621;-66
2021/05/14 11:06:25;;;;;;;7.03;4.25;;;;;;;17.06;60.18;98601.64;130545;1095;23432;-66
2021/05/14 11:08:59;;;;;;;6.53;4.00;;;;;;;17.19;60.62;98602.61;130546;1095;22541;-68
2021/05/14 11:12:08;;;;;;;6.05;3.98;;;;;;;17.33;60.72;98597.75;130431;1097;22597;-67
2021/05/14 11:14:51;;;;;;;9.43;4.45;;;;;;;17.48;61.03;98596.44;130513;1095;23085;-66
2021/05/14 11:17:20;;;;;;;5.68;4.23;;;;;;;17.63;60.45;98601.44;130560;1095;22663;-67
2021/05/14 11:19:50;;;;;;;6.33;4.48;;;;;;;17.81;60.91;98599.50;130507;1095;23080;-67
2021/05/14 11:22:26;;;;;;;7.38;4.38;;;;;;;17.97;59.91;98595.89;130557;1095;22559;-66
2021/05/14 11:25:06;;;;;;;8.15;4.35;;;;;;;18.13;58.51;98587.89;130482;1095;22667;-67
2021/05/14 11:27:35;;;;;;;9.48;4.43;;;;;;;18.25;56.81;98593.52;130442;1095;22633;-67
2021/05/14 11:30:13;;;;;;;8.13;5.13;;;;;;;18.32;56.70;98585.52;130563;1095;22513;-67
2021/05/14 11:32:44;;;;;;;5.75;4.15;;;;;;;18.36;56.62;98583.72;130610;1095;22554;-67
2021/05/14 11:35:17;;;;;;;6.33;3.05;;;;;;;18.40;55.57;98589.39;130565;1095;23321;-66
2021/05/14 11:37:58;;;;;;;5.48;3.15;;;;;;;18.44;55.17;98582.08;130578;1095;23522;-67
2021/05/14 11:40:35;;;;;;;7.23;2.50;;;;;;;18.48;54.87;98588.52;128010;1090;27535;-63
2021/05/14 11:43:09;;;;;;;5.50;2.25;;;;;;;18.53;53.73;98580.07;130560;1095;22519;-64